Time;durP1;ratioP1;P1;durP2;ratioP2;P2;SDS_P1;SDS_P2;PMS_P1;PMS_P2;Temp;Humidity;BMP_temperature;BMP_pressure;BME280_temperature;BME280_humidity;BME280_pressure;Samples;Min_cycle;Max_cycle;Signal;HPM_P1;HPM_P2
2020/12/02 00:01:51;;;;;;;17.70;7.65;;;;;;;6.08;95.08;102154.09;5095652;28;21343;-69
2020/12/02 00:04:19;;;;;;;12.82;8.48;;;;;;;6.02;95.25;102154.09;5100275;28;20106;-71
2020/12/02 00:06:45;;;;;;;17.33;8.07;;;;;;;5.99;95.29;102148.91;5095208;28;20028;-70
2020/12/02 00:09:17;;;;;;;26.27;8.80;;;;;;;5.99;95.43;102148.91;5096444;28;20036;-70
2020/12/02 00:11:43;;;;;;;13.85;7.50;;;;;;;6.03;95.00;102143.63;5095764;28;20028;-69
2020/12/02 00:14:18;;;;;;;13.77;7.82;;;;;;;5.96;95.26;102145.38;5093960;28;20040;-69
2020/12/02 00:16:45;;;;;;;15.10;8.05;;;;;;;5.88;95.64;102151.53;5093671;28;20080;-69
2020/12/02 00:19:11;;;;;;;17.38;8.48;;;;;;;5.84;96.01;102147.19;5095756;28;20454;-69
2020/12/02 00:21:36;;;;;;;18.58;9.55;;;;;;;5.84;95.96;102150.66;5092624;28;20153;-69
2020/12/02 00:24:01;;;;;;;12.95;8.40;;;;;;;5.85;95.50;102152.41;5096009;28;20078;-70
2020/12/02 00:26:27;;;;;;;14.52;8.20;;;;;;;5.90;95.51;102144.50;5092010;28;20132;-70
2020/12/02 00:28:53;;;;;;;14.32;7.72;;;;;;;5.85;95.57;102144.53;5089455;28;20072;-71
2020/12/02 00:31:20;;;;;;;14.85;9.18;;;;;;;5.78;95.48;102152.44;5092017;28;20493;-70
2020/12/02 00:33:46;;;;;;;16.58;8.93;;;;;;;5.70;95.69;102136.72;5096581;28;20031;-69
2020/12/02 00:36:12;;;;;;;18.15;9.52;;;;;;;5.76;95.88;102151.56;5089455;28;20482;-69
2020/12/02 00:38:37;;;;;;;16.95;9.27;;;;;;;5.74;95.87;102148.97;5098140;28;20400;-69
2020/12/02 00:41:03;;;;;;;19.85;10.00;;;;;;;5.80;95.34;102156.78;5087785;28;20028;-69
2020/12/02 00:43:30;;;;;;;12.20;8.52;;;;;;;5.78;95.62;102153.31;5097705;28;20395;-69
2020/12/02 00:45:57;;;;;;;14.20;9.57;;;;;;;5.78;95.54;102155.94;5090784;28;20103;-70
2020/12/02 00:48:24;;;;;;;14.75;8.25;;;;;;;5.84;95.32;102155.91;5088937;28;20028;-70
2020/12/02 00:50:50;;;;;;;12.68;9.07;;;;;;;5.82;95.13;102156.78;5129975;27;20531;-70
2020/12/02 00:53:20;;;;;;;15.65;8.50;;;;;;;5.91;94.40;102160.28;5092906;28;20058;-69
2020/12/02 00:55:48;;;;;;;12.25;7.57;;;;;;;5.89;94.51;102162.03;5120853;27;20599;-69
2020/12/02 00:58:34;;;;;;;13.65;8.18;;;;;;;5.86;94.65;102163.78;5088858;28;20078;-69
2020/12/02 01:01:04;;;;;;;14.03;8.57;;;;;;;5.91;94.45;102159.38;5087244;28;20051;-69
2020/12/02 01:03:31;;;;;;;14.23;7.95;;;;;;;5.91;94.47;102154.13;5087701;28;20027;-69
2020/12/02 01:05:58;;;;;;;10.88;8.10;;;;;;;5.92;94.46;102161.16;5095335;28;20516;-70
2020/12/02 01:08:28;;;;;;;15.32;8.38;;;;;;;5.95;94.39;102148.91;5093885;28;20067;-70
2020/12/02 01:11:14;;;;;;;17.30;8.40;;;;;;;5.95;94.40;102162.03;5089420;28;20055;-70
2020/12/02 01:13:40;;;;;;;15.93;8.77;;;;;;;5.93;94.53;102165.53;5091935;28;20394;-70
2020/12/02 01:16:08;;;;;;;15.00;8.68;;;;;;;5.96;94.34;102160.25;5092533;28;20052;-70
2020/12/02 01:18:34;;;;;;;13.80;8.63;;;;;;;5.93;94.31;102160.28;5099531;28;20058;-70
2020/12/02 01:21:09;;;;;;;13.63;8.18;;;;;;;5.97;94.34;102152.41;5094173;28;20691;-70
2020/12/02 01:23:35;;;;;;;15.00;8.32;;;;;;;5.99;94.25;102157.63;5096261;28;20165;-70
2020/12/02 01:26:01;;;;;;;13.07;7.70;;;;;;;5.95;94.55;102155.91;5092023;28;20039;-70
2020/12/02 01:28:31;;;;;;;11.48;8.45;;;;;;;5.93;94.36;102149.78;5095361;28;20031;-71
2020/12/02 01:30:57;;;;;;;19.15;8.95;;;;;;;5.96;94.35;102155.88;5090453;28;20026;-72
2020/12/02 01:37:02;;;;;;;13.60;8.55;;;;;;;6.03;94.24;102148.00;5094623;28;20032;-71
2020/12/02 01:39:31;;;;;;;12.18;7.75;;;;;;;6.10;94.01;102154.97;5096909;28;20028;-71
2020/12/02 01:41:56;;;;;;;20.63;10.65;;;;;;;6.10;93.70;102152.34;5096008;28;20032;-71
2020/12/02 01:44:22;;;;;;;12.25;8.35;;;;;;;6.09;93.59;102150.59;5095204;28;20442;-71
2020/12/02 01:47:02;;;;;;;18.45;10.00;;;;;;;6.10;93.37;102154.97;5095487;28;20024;-71
2020/12/02 01:49:39;;;;;;;13.60;8.35;;;;;;;6.15;93.31;102161.94;5094565;28;20027;-70
2020/12/02 01:52:34;;;;;;;14.32;7.93;;;;;;;6.09;93.37;102146.22;5094390;28;20409;-70
2020/12/02 01:55:02;;;;;;;13.25;9.02;;;;;;;6.12;93.24;102145.31;5093285;28;20028;-71
2020/12/02 01:57:35;;;;;;;13.00;8.90;;;;;;;6.12;93.11;102147.94;5096015;28;20027;-71
2020/12/02 02:00:12;;;;;;;11.20;8.30;;;;;;;6.13;93.11;102153.19;5096478;28;20032;-71
2020/12/02 02:02:59;;;;;;;14.43;8.88;;;;;;;6.16;92.84;102154.91;5097399;28;20027;-70
2020/12/02 02:05:37;;;;;;;11.07;8.65;;;;;;;6.16;93.07;102154.91;5097956;28;20089;-70
2020/12/02 02:08:03;;;;;;;16.98;9.75;;;;;;;6.10;93.10;102147.09;5097041;28;20489;-70
2020/12/02 02:10:35;;;;;;;11.63;8.32;;;;;;;6.20;92.90;102152.28;5091453;28;20046;-70
2020/12/02 02:13:28;;;;;;;12.25;8.85;;;;;;;6.19;92.85;102153.16;5098018;28;20153;-70
2020/12/02 02:16:00;;;;;;;12.35;8.52;;;;;;;6.10;92.91;102157.59;5099671;28;20555;-70
2020/12/02 02:18:30;;;;;;;12.18;8.88;;;;;;;6.11;92.88;102161.94;5095917;28;20489;-70
2020/12/02 02:21:04;;;;;;;11.95;8.20;;;;;;;6.11;92.91;102156.69;5096524;28;20030;-70
2020/12/02 02:23:29;;;;;;;13.00;8.70;;;;;;;6.09;92.52;102156.72;5095738;28;20108;-70
2020/12/02 02:26:24;;;;;;;15.32;9.05;;;;;;;6.16;92.51;102150.53;5101112;28;20016;-70
2020/12/02 02:28:58;;;;;;;12.20;8.10;;;;;;;6.09;92.80;102140.97;5098225;28;20768;-70
2020/12/02 02:31:27;;;;;;;13.27;8.45;;;;;;;6.13;92.67;102144.47;5097148;28;20031;-70
2020/12/02 02:33:53;;;;;;;14.88;9.27;;;;;;;6.07;93.00;102141.84;5097132;28;20035;-70
2020/12/02 02:36:24;;;;;;;13.27;8.65;;;;;;;6.03;93.39;102135.75;5095899;28;20024;-70
2020/12/02 02:38:50;;;;;;;16.35;8.77;;;;;;;6.05;93.12;102133.97;5093924;28;20718;-70
2020/12/02 02:41:15;;;;;;;14.35;8.68;;;;;;;6.05;93.25;102135.75;5098184;28;20099;-70
2020/12/02 02:43:41;;;;;;;13.32;7.97;;;;;;;6.08;93.16;102133.97;5099373;28;20566;-70
2020/12/02 02:46:07;;;;;;;16.38;8.30;;;;;;;6.02;93.45;102136.59;5097234;28;20024;-70
2020/12/02 02:48:33;;;;;;;15.13;9.48;;;;;;;6.00;93.62;102133.13;5095169;28;20020;-70
2020/12/02 02:50:59;;;;;;;13.57;8.25;;;;;;;6.01;93.50;102131.38;5093077;28;20024;-71
2020/12/02 02:53:25;;;;;;;13.55;8.82;;;;;;;5.99;93.45;102128.78;5096198;28;20036;-70
2020/12/02 02:55:53;;;;;;;11.23;8.90;;;;;;;5.93;93.76;102131.44;5092359;28;20035;-70
2020/12/02 02:58:19;;;;;;;16.20;9.82;;;;;;;6.02;93.57;102128.72;5090358;28;20028;-70
2020/12/02 03:06:38;;;;;;;12.52;8.05;;;;;;;5.97;94.11;102120.91;5095440;28;20026;-69
2020/12/02 03:09:05;;;;;;;13.38;8.45;;;;;;;6.00;93.80;102116.50;5097321;28;20451;-69
2020/12/02 03:11:31;;;;;;;15.15;9.05;;;;;;;6.03;93.76;102114.75;5093063;28;20087;-69
2020/12/02 03:13:56;;;;;;;14.88;8.27;;;;;;;5.96;93.88;102119.16;5095682;28;20034;-68
2020/12/02 03:16:28;;;;;;;12.55;8.85;;;;;;;5.99;93.74;102117.41;5093648;28;20111;-69
2020/12/02 03:18:58;;;;;;;14.70;9.23;;;;;;;5.97;93.71;102117.38;5098210;28;20035;-69
2020/12/02 03:21:24;;;;;;;13.77;8.77;;;;;;;5.94;93.91;102120.91;5093437;28;20027;-70
2020/12/02 03:23:51;;;;;;;16.67;9.10;;;;;;;5.93;93.95;102108.69;5096641;28;20020;-69
2020/12/02 03:26:17;;;;;;;12.52;9.10;;;;;;;5.94;94.16;102115.66;5097026;28;20041;-69
2020/12/02 03:28:42;;;;;;;12.48;8.07;;;;;;;5.94;94.05;102109.53;5094106;28;20035;-70
2020/12/02 03:31:13;;;;;;;14.85;8.80;;;;;;;5.94;94.05;102118.28;5098967;28;20485;-69
2020/12/02 03:33:39;;;;;;;17.23;9.50;;;;;;;5.92;94.01;102112.19;5101680;28;20040;-69
2020/12/02 03:36:05;;;;;;;14.63;10.02;;;;;;;5.91;94.04;102117.38;5094295;28;20404;-69
2020/12/02 03:38:30;;;;;;;13.75;8.55;;;;;;;5.94;94.20;102114.78;5097933;28;20031;-69
2020/12/02 03:40:56;;;;;;;16.27;9.15;;;;;;;5.92;93.89;102117.44;5097139;28;20028;-69
2020/12/02 03:43:21;;;;;;;14.50;10.43;;;;;;;5.86;94.38;102127.03;5094087;28;20020;-70
2020/12/02 03:45:47;;;;;;;16.58;9.40;;;;;;;5.80;94.42;102117.44;5096084;28;20393;-69
2020/12/02 03:48:15;;;;;;;12.63;8.40;;;;;;;5.88;94.83;102114.81;5094447;28;20072;-69
2020/12/02 03:50:42;;;;;;;15.90;9.57;;;;;;;5.88;94.63;102109.56;5098702;28;20024;-69
2020/12/02 03:53:09;;;;;;;14.93;10.32;;;;;;;5.84;94.50;102111.31;5100497;28;20028;-70
2020/12/02 03:55:35;;;;;;;14.57;9.48;;;;;;;5.87;94.43;102107.78;5092388;28;20040;-69
2020/12/02 03:58:00;;;;;;;13.73;9.43;;;;;;;5.88;94.34;102101.69;5097812;28;20023;-69
2020/12/02 04:00:26;;;;;;;15.57;8.70;;;;;;;5.85;94.49;102099.94;5099609;28;20063;-69
2020/12/02 04:02:52;;;;;;;16.35;9.88;;;;;;;5.85;94.41;102102.56;5099107;28;20062;-69
2020/12/02 04:05:18;;;;;;;17.13;10.07;;;;;;;5.86;94.59;102101.66;5097881;28;20027;-69
2020/12/02 04:07:43;;;;;;;19.98;9.55;;;;;;;5.82;94.62;102094.69;5097153;28;20127;-69
2020/12/02 04:10:08;;;;;;;19.85;9.82;;;;;;;5.78;94.71;102090.34;5100670;28;20030;-69
2020/12/02 04:12:34;;;;;;;15.00;9.70;;;;;;;5.80;94.80;102093.84;5097192;28;20508;-69
2020/12/02 04:14:59;;;;;;;14.70;9.50;;;;;;;5.77;94.90;102085.09;5100938;28;20052;-69
2020/12/02 04:17:24;;;;;;;17.05;9.80;;;;;;;5.77;94.88;102088.59;5096045;27;20051;-70
2020/12/02 04:19:50;;;;;;;13.70;9.25;;;;;;;5.74;95.17;102083.38;5091955;28;20555;-70
2020/12/02 04:22:15;;;;;;;15.50;10.25;;;;;;;5.70;95.23;102079.00;5097721;28;20495;-69
2020/12/02 04:24:41;;;;;;;17.52;10.30;;;;;;;5.78;95.28;102081.63;5094212;28;20031;-71
2020/12/02 04:27:07;;;;;;;12.55;9.23;;;;;;;5.76;95.19;102070.25;5097822;27;20385;-70
2020/12/02 04:29:32;;;;;;;15.43;9.60;;;;;;;5.74;95.43;102059.75;5091067;28;20493;-71
2020/12/02 04:31:57;;;;;;;18.13;9.85;;;;;;;5.70;95.37;102066.75;5098577;28;20038;-70
2020/12/02 04:34:23;;;;;;;14.40;10.10;;;;;;;5.69;95.38;102070.28;5098105;28;20024;-70
2020/12/02 04:36:49;;;;;;;12.25;9.40;;;;;;;5.80;95.15;102072.84;5101006;28;20591;-70
2020/12/02 04:39:16;;;;;;;14.95;10.55;;;;;;;5.72;95.53;102064.13;5095178;28;20028;-70
2020/12/02 04:41:42;;;;;;;19.17;10.73;;;;;;;5.78;95.48;102066.75;5098343;28;20024;-70
2020/12/02 04:44:09;;;;;;;14.38;10.32;;;;;;;5.79;95.45;102068.47;5095155;28;20031;-70
2020/12/02 04:46:35;;;;;;;15.35;10.68;;;;;;;5.78;95.23;102071.13;5088860;28;20026;-71
2020/12/02 04:49:11;;;;;;;14.93;10.35;;;;;;;5.74;95.42;102072.00;5098045;28;20434;-70
2020/12/02 04:51:37;;;;;;;15.77;9.45;;;;;;;5.81;95.28;102071.09;5091560;28;20034;-70
2020/12/02 04:54:02;;;;;;;14.13;10.27;;;;;;;5.79;95.33;102070.25;5095288;28;20103;-70
2020/12/02 04:56:28;;;;;;;16.15;10.32;;;;;;;5.84;95.22;102069.34;5093489;28;20052;-70
2020/12/02 04:58:56;;;;;;;18.70;10.18;;;;;;;5.83;95.11;102069.34;5088589;28;20051;-71
2020/12/02 05:01:33;;;;;;;17.65;10.73;;;;;;;5.78;95.13;102064.13;5089447;28;20021;-70
2020/12/02 05:04:07;;;;;;;13.13;9.57;;;;;;;5.73;95.01;102065.91;5093109;28;20114;-69
2020/12/02 05:06:38;;;;;;;15.88;9.98;;;;;;;5.80;95.14;102064.09;5091585;28;20065;-69
2020/12/02 05:09:23;;;;;;;18.42;11.20;;;;;;;5.81;95.01;102066.72;5094757;28;20498;-69
2020/12/02 05:12:04;;;;;;;18.05;11.57;;;;;;;5.86;94.69;102061.44;5093340;28;20088;-69
2020/12/02 05:14:34;;;;;;;17.00;10.73;;;;;;;5.79;94.82;102057.13;5093521;28;20056;-69
2020/12/02 05:17:12;;;;;;;19.45;12.05;;;;;;;5.72;94.95;102058.88;5091257;28;20032;-69
2020/12/02 05:19:37;;;;;;;16.83;11.40;;;;;;;5.78;94.66;102064.13;5092279;28;20044;-70
2020/12/02 05:22:05;;;;;;;18.70;12.27;;;;;;;5.78;94.55;102052.75;5094799;28;20443;-70
2020/12/02 05:24:42;;;;;;;19.90;11.63;;;;;;;5.74;94.40;102046.66;5094886;28;20031;-70
2020/12/02 05:27:12;;;;;;;20.70;11.93;;;;;;;5.70;94.55;102051.03;5093966;28;20023;-70
2020/12/02 05:29:48;;;;;;;21.98;12.93;;;;;;;5.65;94.82;102059.81;5092403;28;20028;-70
2020/12/02 05:32:20;;;;;;;22.40;13.02;;;;;;;5.64;94.96;102050.19;5098118;28;20040;-70
2020/12/02 05:34:46;;;;;;;23.50;13.27;;;;;;;5.64;95.04;102047.56;5094548;28;20032;-70
2020/12/02 05:37:17;;;;;;;19.15;12.40;;;;;;;5.62;94.79;102047.59;5095629;28;20383;-70
2020/12/02 05:39:55;;;;;;;22.17;12.60;;;;;;;5.59;94.95;102044.09;5095370;28;20027;-70
2020/12/02 05:42:31;;;;;;;18.33;11.57;;;;;;;5.70;94.70;102048.41;5097519;28;20039;-69
2020/12/02 05:45:06;;;;;;;19.42;12.63;;;;;;;5.72;94.70;102048.38;5094830;28;20397;-69
2020/12/02 05:47:32;;;;;;;18.67;11.48;;;;;;;5.67;94.91;102039.66;5096904;28;20031;-69
2020/12/02 05:49:59;;;;;;;19.52;12.15;;;;;;;5.63;94.83;102037.97;5098135;28;20012;-69
2020/12/02 05:52:34;;;;;;;19.98;12.25;;;;;;;5.59;95.07;102039.72;5104722;28;20066;-69
2020/12/02 05:55:15;;;;;;;25.50;13.32;;;;;;;5.68;94.70;102037.06;5098738;28;20505;-70
2020/12/02 05:57:53;;;;;;;22.13;11.68;;;;;;;5.63;95.16;102038.84;5099846;28;20028;-70
2020/12/02 06:00:18;;;;;;;20.98;11.77;;;;;;;5.64;95.14;102031.84;5098290;28;20035;-70
2020/12/02 06:02:44;;;;;;;18.92;12.35;;;;;;;5.68;95.11;102021.31;5101374;28;20027;-70
2020/12/02 06:05:11;;;;;;;18.27;11.68;;;;;;;5.63;95.24;102023.09;5099393;28;20102;-70
2020/12/02 06:07:54;;;;;;;19.15;12.43;;;;;;;5.64;95.17;102027.47;5096117;28;20016;-71
2020/12/02 06:10:31;;;;;;;23.90;12.45;;;;;;;5.65;95.43;102018.69;5098481;28;20065;-70
2020/12/02 06:12:58;;;;;;;18.30;11.63;;;;;;;5.63;95.59;102020.47;5094274;28;20107;-70
2020/12/02 06:15:25;;;;;;;15.98;11.35;;;;;;;5.63;95.66;102020.47;5101562;28;20047;-69
2020/12/02 06:18:13;;;;;;;18.55;11.75;;;;;;;5.75;95.30;102013.41;5094909;28;20039;-70
2020/12/02 06:20:44;;;;;;;21.50;11.65;;;;;;;5.67;95.39;102014.34;5099087;28;20131;-70
2020/12/02 06:23:09;;;;;;;20.70;12.10;;;;;;;5.64;95.52;102016.97;5092966;28;20024;-71
2020/12/02 06:25:51;;;;;;;22.33;13.05;;;;;;;5.64;95.66;102013.47;5095563;28;20038;-70
2020/12/02 06:28:44;;;;;;;20.60;11.85;;;;;;;5.62;95.50;102018.75;5091783;28;20098;-70
2020/12/02 06:31:22;;;;;;;19.20;12.25;;;;;;;5.64;95.37;102016.09;5093646;28;20055;-70
2020/12/02 06:33:48;;;;;;;17.42;12.75;;;;;;;5.64;95.39;102010.84;5095189;28;20452;-70
2020/12/02 06:36:27;;;;;;;19.70;11.50;;;;;;;5.69;95.36;102009.06;5096046;28;20485;-70
2020/12/02 06:39:04;;;;;;;19.50;12.23;;;;;;;5.68;95.25;102002.97;5094804;28;20028;-70
2020/12/02 06:41:35;;;;;;;20.75;12.02;;;;;;;5.66;95.16;101999.47;5095551;28;20515;-70
2020/12/02 06:44:18;;;;;;;19.08;12.50;;;;;;;5.70;95.16;102003.81;5093067;28;20036;-71
2020/12/02 06:47:07;;;;;;;19.88;11.85;;;;;;;5.68;94.95;102008.22;5088439;28;20028;-71
2020/12/02 06:49:36;;;;;;;22.25;12.25;;;;;;;5.77;94.92;102009.88;5091440;28;20040;-71
2020/12/02 06:52:09;;;;;;;22.77;13.27;;;;;;;5.73;95.11;102002.94;5094950;28;20028;-71
2020/12/02 06:54:38;;;;;;;18.77;12.75;;;;;;;5.73;95.38;102000.31;5093463;28;20028;-71
2020/12/02 06:57:12;;;;;;;19.88;12.02;;;;;;;5.79;95.24;102007.28;5102834;27;20030;-71
2020/12/02 06:59:54;;;;;;;19.85;12.82;;;;;;;5.80;95.09;102003.75;5083866;28;20580;-70
2020/12/02 07:02:38;;;;;;;22.88;12.25;;;;;;;5.74;94.93;102007.28;5093815;28;20034;-71
2020/12/02 07:05:08;;;;;;;26.77;13.63;;;;;;;5.68;94.70;102007.34;5089287;28;20046;-70
2020/12/02 07:07:34;;;;;;;22.30;13.20;;;;;;;5.77;94.57;102009.88;5093512;28;20389;-70
2020/12/02 07:09:59;;;;;;;20.67;12.52;;;;;;;5.77;94.35;102012.50;5094622;28;20031;-75
2020/12/02 07:12:27;;;;;;;20.85;14.15;;;;;;;5.80;94.43;102015.13;5104943;28;20043;-72
2020/12/02 07:14:58;;;;;;;25.10;15.48;;;;;;;5.71;94.36;102013.41;5074590;28;20416;-72
2020/12/02 07:17:24;;;;;;;34.53;18.77;;;;;;;5.70;94.50;102021.31;5096923;28;20457;-73
2020/12/02 07:19:51;;;;;;;32.00;19.25;;;;;;;5.65;94.73;102017.84;5097632;28;20098;-73
2020/12/02 07:22:21;;;;;;;31.75;17.48;;;;;;;5.60;94.81;102020.47;5092428;27;20087;-73
2020/12/02 07:24:48;;;;;;;27.63;16.05;;;;;;;5.63;94.73;102015.22;5091312;28;20099;-72
2020/12/02 07:27:16;;;;;;;28.08;17.42;;;;;;;5.68;95.07;102010.84;5093925;28;20542;-73
2020/12/02 07:29:42;;;;;;;23.83;15.57;;;;;;;5.68;94.73;102013.44;5097765;28;20028;-73
2020/12/02 07:32:19;;;;;;;25.75;15.23;;;;;;;5.71;94.42;102002.91;5092853;28;20032;-74
2020/12/02 07:34:45;;;;;;;26.98;16.27;;;;;;;5.75;93.94;102002.91;5085666;28;20031;-73
2020/12/02 07:37:16;;;;;;;25.40;15.43;;;;;;;5.77;93.65;102003.78;5101264;28;20035;-73
2020/12/02 07:39:46;;;;;;;29.10;14.85;;;;;;;5.78;93.95;102003.78;5088479;28;20020;-72
2020/12/02 07:42:25;;;;;;;23.17;14.65;;;;;;;5.72;93.93;102002.06;5098717;28;20396;-73
2020/12/02 07:45:18;;;;;;;30.63;15.90;;;;;;;5.83;93.78;101999.38;5094969;28;20034;-72
2020/12/02 07:47:59;;;;;;;25.38;14.50;;;;;;;5.75;94.26;101995.91;5093158;28;20494;-74
2020/12/02 07:50:37;;;;;;;26.25;15.05;;;;;;;5.72;94.34;101990.69;5094527;28;20040;-73
2020/12/02 07:53:12;;;;;;;24.10;15.65;;;;;;;5.68;94.25;101995.09;5095568;28;20639;-74
2020/12/02 07:55:42;;;;;;;27.15;15.10;;;;;;;5.74;93.84;101998.56;5096760;28;20019;-74
2020/12/02 07:58:26;;;;;;;27.23;15.68;;;;;;;5.69;94.00;101996.81;5092447;28;20055;-74
2020/12/02 08:00:53;;;;;;;27.52;15.30;;;;;;;5.74;94.20;101996.81;5094581;28;20481;-74
2020/12/02 08:03:33;;;;;;;32.00;16.92;;;;;;;5.72;93.99;102002.06;5091112;28;20081;-74
2020/12/02 08:06:24;;;;;;;34.78;18.30;;;;;;;5.73;94.11;101992.44;5094738;28;20343;-73
2020/12/02 08:08:50;;;;;;;29.58;16.25;;;;;;;5.79;93.76;101989.78;5091477;28;20031;-75
2020/12/02 08:11:17;;;;;;;29.00;16.67;;;;;;;5.78;93.54;101988.03;5091856;28;20024;-75
2020/12/02 08:13:57;;;;;;;27.98;16.55;;;;;;;5.79;93.56;101986.28;5096380;28;20020;-74
2020/12/02 08:16:27;;;;;;;28.98;16.45;;;;;;;5.78;93.40;101974.94;5094937;28;20024;-75
2020/12/02 08:18:55;;;;;;;29.63;16.92;;;;;;;5.79;93.64;101978.41;5091629;28;20020;-76
2020/12/02 08:21:25;;;;;;;32.05;17.30;;;;;;;5.81;93.64;101974.88;5095675;28;20105;-74
2020/12/02 08:24:28;;;;;;;26.55;15.80;;;;;;;5.80;93.37;101986.25;5094950;28;20489;-74
2020/12/02 08:26:53;;;;;;;28.95;15.63;;;;;;;5.86;93.51;101977.47;5090609;28;20023;-74
2020/12/02 08:29:23;;;;;;;29.17;16.70;;;;;;;5.80;93.31;101975.78;5094544;28;20038;-74
2020/12/02 08:32:16;;;;;;;33.25;17.08;;;;;;;5.78;93.81;101972.31;5094172;28;20024;-75
2020/12/02 08:34:41;;;;;;;27.13;16.13;;;;;;;5.84;93.59;101968.75;5093584;28;20485;-75
2020/12/02 08:37:24;;;;;;;31.13;16.98;;;;;;;5.83;93.51;101969.66;5089142;28;20043;-74
2020/12/02 08:39:54;;;;;;;35.78;16.98;;;;;;;5.91;93.65;101971.34;5083371;28;20042;-75
2020/12/02 08:42:30;;;;;;;31.35;17.52;;;;;;;5.86;93.36;101964.34;5095695;28;20501;-75
2020/12/02 08:45:10;;;;;;;31.95;18.33;;;;;;;5.82;93.08;101963.50;5091519;28;20039;-74
2020/12/02 08:47:36;;;;;;;37.20;18.48;;;;;;;5.84;93.52;101961.75;5091916;28;20435;-73
2020/12/02 08:50:01;;;;;;;36.72;17.77;;;;;;;5.90;93.45;101960.84;5089951;28;20036;-76
2020/12/02 08:52:26;;;;;;;38.67;17.90;;;;;;;5.89;92.62;101954.72;5088036;28;20027;-74
2020/12/02 08:54:51;;;;;;;36.42;17.88;;;;;;;5.92;92.71;101954.75;5089321;28;20034;-75
2020/12/02 08:57:18;;;;;;;41.35;18.08;;;;;;;5.88;92.76;101953.00;5092131;28;20188;-75
2020/12/02 08:59:44;;;;;;;33.20;18.10;;;;;;;5.90;93.36;101950.34;5081559;28;20477;-74
2020/12/02 09:02:11;;;;;;;35.80;18.35;;;;;;;5.87;92.77;101951.25;5090220;28;20035;-74
2020/12/02 09:04:37;;;;;;;32.95;17.33;;;;;;;5.87;93.25;101950.34;5092319;28;20424;-75
2020/12/02 09:07:02;;;;;;;34.75;19.05;;;;;;;5.86;93.02;101946.00;5092452;28;20031;-73
2020/12/02 09:09:28;;;;;;;39.70;19.77;;;;;;;5.95;93.31;101943.34;5093414;28;20043;-74
2020/12/02 09:11:54;;;;;;;35.00;18.75;;;;;;;5.94;93.10;101937.22;5097238;28;20135;-74
2020/12/02 09:14:19;;;;;;;31.38;18.70;;;;;;;5.97;93.08;101949.44;5091512;28;20047;-74
2020/12/02 09:16:44;;;;;;;35.10;17.88;;;;;;;5.97;92.77;101942.47;5091803;28;20024;-74
2020/12/02 09:19:13;;;;;;;32.25;16.95;;;;;;;5.97;92.74;101944.19;5096521;28;20119;-74
2020/12/02 09:21:38;;;;;;;29.73;18.00;;;;;;;6.02;92.76;101939.78;5089499;28;20051;-73
2020/12/02 09:24:04;;;;;;;31.70;17.30;;;;;;;6.10;92.40;101937.09;5096689;28;20750;-75
2020/12/02 09:26:33;;;;;;;31.58;18.13;;;;;;;6.04;92.79;101937.16;5089867;28;20020;-74
2020/12/02 09:29:00;;;;;;;31.83;18.25;;;;;;;5.99;93.10;101934.56;5092582;28;20047;-74
2020/12/02 09:31:28;;;;;;;30.52;17.40;;;;;;;5.99;92.75;101937.19;5118050;28;20035;-76
2020/12/02 09:33:53;;;;;;;28.33;16.95;;;;;;;6.08;92.72;101934.50;5100647;28;20434;-75
2020/12/02 09:36:20;;;;;;;30.95;16.67;;;;;;;6.07;92.39;101934.47;5097090;28;20059;-74
2020/12/02 09:38:47;;;;;;;34.67;18.15;;;;;;;5.99;92.28;101931.06;5089991;28;20493;-74
2020/12/02 09:41:39;;;;;;;45.28;22.77;;;;;;;6.05;92.68;101933.63;5090696;28;20028;-75
2020/12/02 09:44:32;;;;;;;39.38;18.70;;;;;;;6.07;92.25;101934.47;5092629;28;20036;-74
2020/12/02 09:47:02;;;;;;;33.83;18.65;;;;;;;6.04;91.88;101930.16;5094646;28;20016;-74
2020/12/02 09:49:28;;;;;;;35.83;20.88;;;;;;;5.99;92.02;101925.81;5090667;28;20028;-74
2020/12/02 09:52:33;;;;;;;40.13;20.33;;;;;;;6.06;92.46;101920.50;5096996;28;20024;-75
2020/12/02 09:55:00;;;;;;;40.85;23.70;;;;;;;6.10;92.54;101924.84;5092794;28;20039;-75
2020/12/02 09:57:29;;;;;;;37.67;20.10;;;;;;;6.20;91.84;101916.00;5095868;28;20025;-74
2020/12/02 09:59:57;;;;;;;29.83;17.77;;;;;;;6.09;91.62;101915.22;5099219;28;20032;-74
2020/12/02 10:02:59;;;;;;;29.85;17.58;;;;;;;6.14;92.26;101909.94;5091806;28;20145;-75
2020/12/02 10:05:54;;;;;;;28.92;15.70;;;;;;;6.10;90.98;101903.84;5089103;28;20031;-74
2020/12/02 10:08:45;;;;;;;32.58;17.00;;;;;;;6.15;91.77;101895.94;5123692;27;20035;-75
2020/12/02 10:11:33;;;;;;;31.25;16.95;;;;;;;6.08;91.40;101897.75;5089845;28;20498;-74
2020/12/02 10:14:15;;;;;;;35.15;18.13;;;;;;;6.10;91.79;101893.34;5092551;28;20020;-74
2020/12/02 10:17:01;;;;;;;31.45;17.73;;;;;;;6.14;91.81;101888.94;5092831;28;20028;-74
2020/12/02 10:19:43;;;;;;;29.35;16.08;;;;;;;6.11;91.28;101883.72;5097380;28;20229;-75
2020/12/02 10:22:30;;;;;;;31.00;15.65;;;;;;;6.10;91.67;101879.34;5093172;28;20582;-75
2020/12/02 10:25:16;;;;;;;28.88;16.88;;;;;;;6.10;91.43;101879.34;5092646;28;20028;-75
2020/12/02 10:28:02;;;;;;;26.65;15.90;;;;;;;6.11;91.06;101873.22;5097150;28;20020;-74
2020/12/02 10:30:30;;;;;;;26.03;16.40;;;;;;;6.13;91.36;101876.72;5093808;28;20405;-75
2020/12/02 10:33:16;;;;;;;28.10;15.48;;;;;;;6.29;90.43;101865.16;5100696;28;20682;-75
2020/12/02 10:35:44;;;;;;;29.77;16.20;;;;;;;6.15;91.21;101865.28;5097423;28;20055;-74
2020/12/02 10:38:22;;;;;;;31.45;16.13;;;;;;;6.11;91.13;101858.34;5101627;28;20374;-74
2020/12/02 10:40:53;;;;;;;28.10;16.35;;;;;;;6.13;90.95;101845.22;5094339;28;20073;-75
2020/12/02 10:43:33;;;;;;;28.77;16.20;;;;;;;6.25;91.75;101838.97;5093532;28;20238;-74
2020/12/02 10:46:02;;;;;;;26.45;15.85;;;;;;;6.21;91.10;101841.59;5096581;28;20028;-74
2020/12/02 10:48:57;;;;;;;29.00;16.65;;;;;;;6.26;91.80;101835.44;5097375;28;20111;-75
2020/12/02 10:51:22;;;;;;;26.23;15.85;;;;;;;6.21;91.48;101830.22;5095231;28;20028;-75
2020/12/02 10:53:49;;;;;;;24.40;14.98;;;;;;;6.15;91.25;101827.69;5091358;28;20386;-72
2020/12/02 10:56:19;;;;;;;25.90;15.18;;;;;;;6.17;90.88;101816.25;5110604;27;20039;-75
2020/12/02 10:58:45;;;;;;;28.17;15.00;;;;;;;6.17;91.30;101821.50;5094646;28;20028;-75
2020/12/02 11:01:12;;;;;;;26.85;15.77;;;;;;;6.18;91.05;101815.41;5084615;28;20023;-73
2020/12/02 11:03:40;;;;;;;30.45;15.57;;;;;;;6.22;91.28;101806.63;5092855;28;20035;-74
2020/12/02 11:06:22;;;;;;;28.17;15.02;;;;;;;6.25;90.77;101805.69;5095507;28;20136;-73
2020/12/02 11:09:15;;;;;;;29.48;16.60;;;;;;;6.29;91.17;101803.91;5094681;28;20020;-75
2020/12/02 11:12:15;;;;;;;25.45;15.10;;;;;;;6.23;91.06;101800.47;5096318;28;20045;-74
2020/12/02 11:15:08;;;;;;;28.70;16.10;;;;;;;6.27;91.59;101792.53;5091991;28;20055;-75
2020/12/02 11:18:10;;;;;;;32.70;15.48;;;;;;;6.35;91.42;101788.94;5094386;28;20039;-73
2020/12/02 11:20:56;;;;;;;26.88;14.75;;;;;;;6.35;90.78;101778.44;5099145;28;20477;-75
2020/12/02 11:23:46;;;;;;;28.10;14.00;;;;;;;6.30;91.21;101771.50;5095794;28;20122;-74
2020/12/02 11:26:29;;;;;;;28.65;14.75;;;;;;;6.37;90.76;101767.91;5094831;28;20043;-74
2020/12/02 11:28:57;;;;;;;25.98;15.10;;;;;;;6.33;90.74;101761.84;5092700;28;20017;-74
2020/12/02 11:31:52;;;;;;;27.40;14.93;;;;;;;6.33;90.22;101748.72;5092729;28;20035;-75
2020/12/02 11:34:44;;;;;;;25.90;14.98;;;;;;;6.32;90.31;101754.84;5092391;27;20031;-73
2020/12/02 11:37:27;;;;;;;28.20;16.02;;;;;;;6.30;90.05;101754.00;5099286;28;20397;-74
2020/12/02 11:40:07;;;;;;;25.45;15.23;;;;;;;6.34;90.47;101749.59;5093083;28;20059;-74
2020/12/02 11:42:48;;;;;;;25.60;15.07;;;;;;;6.31;90.32;101750.47;5090333;28;20047;-75
2020/12/02 11:45:19;;;;;;;21.67;13.93;;;;;;;6.29;90.06;101746.16;5095881;28;20036;-75
2020/12/02 11:47:59;;;;;;;27.77;15.45;;;;;;;6.39;89.83;101747.78;5091812;28;20027;-75
2020/12/02 11:50:31;;;;;;;24.10;15.30;;;;;;;6.32;90.39;101743.47;5093634;28;20114;-76
2020/12/02 11:53:06;;;;;;;31.73;14.95;;;;;;;6.35;89.83;101738.19;5090603;28;20071;-75